Strona główna
METAR-TAF:

METAR-TAF

Lotnisko :

Port lotniczy Wyspy Marshalla

Majuro, Wyspy Marshalla

Szerokość geograficzna: 07-04N, Długość geograficzna: 171-17E, wysokość: 2 m

Aktualna obserwacja pogody

Raport powstał 4 godziny i 41 minut temu, godzina 07:54 UTC
Wiatr 4 kt od wschodnio-północny wschód
Temperatura 29°C
Wilgotność 79%
Ciśnienie 1010 hPa
Widzialność: 24.1 km
Mało chmury na wysokości 1500 ft
Rozproszone chmury na wysokości 5000 ft
Przerywane chmury na wysokości 30000 ft

METAR: PKMJ 180754Z 06004KT 15SM FEW015 SCT050 BKN300 29/25 A2983 RMK LAST

czas: 00:35 (12:35 UTC)

Prognoza

Raport powstał 1 godzina i 1 minut temu, godzina 11:34 UTC
Prognoza ważna od 18 godzina 12 UTC do 19 godzina 12 UTC
Wiatr 7 kt od wschód
Widzialność: 10 km
Rozproszone chmury na wysokości 1500 ft
Rozproszone chmury na wysokości 5000 ft
Przerywane chmury na wysokości 12000 ft
przelotny w pobliże

TAF: PKMJ 181134Z 1812/1912 09007KT P6SM VCSH SCT015 SCT050 BKN120

Obserwacja i prognoza pogody dla ponad 4000 lotnisk (raport METAR i TAF).

Dostępne stacje oznaczono żółtymi i czerwonymi punktami na mapie.

Najedź kursorem aby zobaczyć nazwę stacji.

Kliknij aby zobaczyć obserwacje i prognozy pogody.

Aby zmienić mapę: kliknij na zielony przycisk z czarnym krzyżykiem, aby powiększyć; na zielony przycisk z myślnikiem, aby pomniejszyć; na zielone strzałki, aby przejść do map sąsiednich.


METAR-TAF: